Time;durP1;ratioP1;P1;durP2;ratioP2;P2;SDS_P1;SDS_P2;PMS_P1;PMS_P2;Temp;Humidity;BMP_temperature;BMP_pressure;BME280_temperature;BME280_humidity;BME280_pressure;Samples;Min_cycle;Max_cycle;Signal;HPM_P1;HPM_P2
2022/06/22 00:01:54;;;;;;;5.68;2.60;;;;;;;16.44;64.86;100142.44;5022051;28;20044;-74
2022/06/22 00:04:35;;;;;;;7.38;2.78;;;;;;;16.42;65.88;100141.63;5015957;28;20109;-74
2022/06/22 00:07:20;;;;;;;6.65;2.97;;;;;;;16.53;65.34;100134.94;5030929;28;20504;-74
2022/06/22 00:09:47;;;;;;;7.43;2.90;;;;;;;16.61;64.64;100127.47;5021134;28;20478;-73
2022/06/22 00:12:25;;;;;;;7.13;2.95;;;;;;;16.66;65.56;100133.38;5015295;28;20100;-73
2022/06/22 00:14:53;;;;;;;7.35;3.75;;;;;;;16.58;65.28;100135.56;5023674;28;20033;-74
2022/06/22 00:17:25;;;;;;;6.43;2.63;;;;;;;16.64;65.30;100132.63;5022063;28;20045;-73
2022/06/22 00:20:01;;;;;;;7.68;3.15;;;;;;;16.78;64.44;100129.28;5029710;28;20040;-73
2022/06/22 00:22:27;;;;;;;9.68;3.08;;;;;;;16.73;64.47;100132.19;5022404;28;20076;-73
2022/06/22 00:25:00;;;;;;;4.63;2.75;;;;;;;16.62;65.61;100129.16;5015612;28;20120;-73
2022/06/22 00:27:37;;;;;;;7.30;3.10;;;;;;;16.53;66.14;100129.63;5023704;28;20064;-73
2022/06/22 00:30:13;;;;;;;6.15;2.80;;;;;;;16.57;65.54;100125.91;5004879;28;20383;-73
2022/06/22 00:32:51;;;;;;;5.57;2.80;;;;;;;16.68;64.60;100134.19;5021403;28;20042;-73
2022/06/22 00:35:42;;;;;;;6.38;2.60;;;;;;;16.73;65.21;100129.53;5018394;28;20379;-73
2022/06/22 00:38:14;;;;;;;6.95;3.08;;;;;;;16.67;64.58;100127.13;5012388;28;20038;-73
2022/06/22 00:40:40;;;;;;;;;;;;;;;16.79;64.95;100123.88;5011997;28;20033;-73
2022/06/22 00:43:06;;;;;;;5.55;2.22;;;;;;;16.82;63.78;100129.03;5021187;28;19914;-73
2022/06/22 00:45:34;;;;;;;5.97;2.55;;;;;;;16.85;63.55;100126.22;5016077;28;20413;-73
2022/06/22 00:48:01;;;;;;;5.35;2.83;;;;;;;16.87;63.38;100134.97;5000259;28;20473;-73
2022/06/22 00:50:37;;;;;;;4.63;2.80;;;;;;;16.89;63.32;100138.41;5022608;28;20030;-73
2022/06/22 00:53:17;;;;;;;5.35;2.55;;;;;;;16.80;64.01;100128.28;5016992;28;20057;-73
2022/06/22 00:55:50;;;;;;;5.95;3.28;;;;;;;16.74;64.09;100128.56;5046698;28;20041;-73
2022/06/22 00:58:18;;;;;;;8.50;3.50;;;;;;;16.63;64.23;100128.22;5033301;28;20032;-72
2022/06/22 01:01:28;;;;;;;4.68;2.42;;;;;;;16.67;64.50;100135.94;5018299;28;20043;-73
2022/06/22 01:03:56;;;;;;;5.68;2.47;;;;;;;16.63;64.09;100141.50;4995980;28;20053;-73
2022/06/22 01:07:00;;;;;;;3.25;2.53;;;;;;;16.65;64.32;100139.63;5036662;28;20033;-73
2022/06/22 01:09:37;;;;;;;4.75;2.63;;;;;;;16.62;64.47;100142.44;5027780;28;20037;-74
2022/06/22 01:12:18;;;;;;;4.25;2.95;;;;;;;16.61;64.32;100141.56;5037196;28;20039;-74
2022/06/22 01:15:21;;;;;;;6.07;2.88;;;;;;;16.56;64.82;100145.41;5034053;28;20029;-73
2022/06/22 01:18:07;;;;;;;7.10;3.05;;;;;;;16.48;65.15;100146.63;5035627;28;20037;-73
2022/06/22 01:20:35;;;;;;;8.25;3.20;;;;;;;16.48;64.81;100141.34;5035546;28;20083;-74
2022/06/22 01:23:34;;;;;;;4.32;2.85;;;;;;;16.47;64.79;100136.94;5033917;28;20037;-74
2022/06/22 01:26:31;;;;;;;5.88;2.67;;;;;;;16.48;64.68;100133.38;5030219;28;20184;-74
2022/06/22 01:29:06;;;;;;;3.80;2.20;;;;;;;16.47;64.42;100130.78;5052477;28;20033;-74
2022/06/22 01:31:34;;;;;;;9.40;3.13;;;;;;;16.47;64.27;100129.00;5039952;28;20042;-73
2022/06/22 01:34:01;;;;;;;7.70;5.50;;;;;;;16.42;64.34;100128.38;5028038;28;20037;-73
2022/06/22 01:36:30;;;;;;;16.70;12.20;;;;;;;16.46;64.40;100134.38;5051817;28;20462;-74
2022/06/22 01:38:56;;;;;;;19.23;11.77;;;;;;;16.48;64.38;100130.72;5043996;28;20033;-73
2022/06/22 01:41:40;;;;;;;14.30;10.75;;;;;;;16.48;64.44;100133.38;5020815;28;20037;-73
2022/06/22 01:44:15;;;;;;;9.07;6.65;;;;;;;16.44;64.27;100125.66;5042451;28;20037;-73
2022/06/22 01:46:50;;;;;;;12.90;6.07;;;;;;;16.40;64.37;100124.09;5051401;28;20025;-73
2022/06/22 01:49:29;;;;;;;9.82;4.38;;;;;;;16.50;64.08;100128.00;5035149;28;20466;-73
2022/06/22 01:52:00;;;;;;;7.70;4.03;;;;;;;16.35;64.39;100121.66;5042584;28;20033;-74
2022/06/22 01:54:38;;;;;;;6.93;3.90;;;;;;;16.30;64.66;100134.28;5031134;28;20044;-73
2022/06/22 01:57:15;;;;;;;7.90;3.88;;;;;;;16.28;64.57;100136.16;5033647;28;20120;-71
2022/06/22 02:00:14;;;;;;;7.93;4.57;;;;;;;16.38;64.32;100131.25;5027849;28;20029;-73
2022/06/22 02:02:45;;;;;;;7.82;3.85;;;;;;;16.30;64.30;100139.56;5048559;28;20064;-70
2022/06/22 02:05:39;;;;;;;5.80;3.30;;;;;;;16.33;64.42;100147.41;5034084;28;20029;-69
2022/06/22 02:08:19;;;;;;;5.35;3.17;;;;;;;16.37;64.38;100145.44;5048695;28;20480;-74
2022/06/22 02:10:54;;;;;;;4.53;3.17;;;;;;;16.43;64.13;100143.34;5033530;28;20071;-73
2022/06/22 02:13:42;;;;;;;5.07;3.25;;;;;;;16.43;64.10;100140.69;5034103;28;20120;-73
2022/06/22 02:16:44;;;;;;;4.50;2.85;;;;;;;16.39;64.38;100139.13;5049344;28;20044;-73
2022/06/22 02:19:16;;;;;;;4.83;2.93;;;;;;;16.33;64.16;100150.03;5020555;28;20029;-73
2022/06/22 02:21:46;;;;;;;6.05;3.50;;;;;;;16.33;64.02;100150.03;5020803;28;20071;-73
2022/06/22 02:24:18;;;;;;;4.60;3.15;;;;;;;16.31;64.10;100151.91;5050896;28;20029;-72
2022/06/22 02:27:07;;;;;;;4.93;3.20;;;;;;;16.29;64.29;100153.78;5035881;28;20041;-73
2022/06/22 02:29:37;;;;;;;7.50;4.78;;;;;;;16.27;64.17;100161.78;5039231;28;20044;-73
2022/06/22 02:32:07;;;;;;;7.32;3.75;;;;;;;16.29;63.91;100153.78;5038359;28;20029;-73
2022/06/22 02:34:35;;;;;;;5.25;3.13;;;;;;;16.34;63.87;100153.56;5039730;28;20053;-73
2022/06/22 02:37:07;;;;;;;7.80;3.90;;;;;;;16.37;63.95;100161.38;5038134;28;20044;-73
2022/06/22 02:39:37;;;;;;;10.07;3.78;;;;;;;16.43;63.66;100166.34;5031975;28;20465;-73
2022/06/22 02:44:49;;;;;;;7.45;4.30;;;;;;;16.45;63.82;100175.94;5038312;28;20052;-73
2022/06/22 02:47:23;;;;;;;6.07;3.67;;;;;;;16.52;63.65;100171.22;5025647;28;20037;-72
2022/06/22 02:49:52;;;;;;;11.75;5.40;;;;;;;16.49;63.78;100174.00;5033762;28;20037;-73
2022/06/22 02:52:21;;;;;;;6.38;4.28;;;;;;;16.51;63.80;100165.03;5032438;28;20055;-73
2022/06/22 02:54:52;;;;;;;6.88;4.18;;;;;;;16.57;63.55;100168.34;5044066;28;20075;-74
2022/06/22 02:57:30;;;;;;;8.57;4.80;;;;;;;16.55;63.74;100162.22;5037390;28;20170;-74
2022/06/22 02:59:57;;;;;;;6.95;4.03;;;;;;;16.60;63.51;100169.03;5032381;28;20040;-74
2022/06/22 03:02:25;;;;;;;6.43;4.28;;;;;;;16.65;63.25;100168.81;5038701;28;20432;-73
2022/06/22 03:04:52;;;;;;;7.75;4.18;;;;;;;16.70;63.10;100161.47;5031992;28;20041;-73
2022/06/22 03:07:21;;;;;;;8.70;4.00;;;;;;;16.68;63.21;100164.22;5047846;28;20056;-73
2022/06/22 03:09:48;;;;;;;7.45;4.05;;;;;;;16.72;63.16;100159.63;5050110;28;20037;-72
2022/06/22 03:12:15;;;;;;;7.03;4.03;;;;;;;16.75;63.10;100156.81;5032916;28;20483;-73
2022/06/22 03:15:13;;;;;;;7.22;3.42;;;;;;;16.82;63.52;100163.53;5024984;28;20037;-73
2022/06/22 03:17:39;;;;;;;7.18;3.72;;;;;;;16.83;63.12;100172.34;5013132;28;20048;-74
2022/06/22 03:20:09;;;;;;;7.95;4.28;;;;;;;16.93;63.09;100166.50;5047405;28;20114;-74
2022/06/22 03:22:39;;;;;;;6.20;3.08;;;;;;;16.97;63.25;100165.41;5020446;28;20041;-75
2022/06/22 03:25:17;;;;;;;5.70;3.90;;;;;;;16.95;63.35;100167.25;5043317;28;20030;-75
2022/06/22 03:27:46;;;;;;;7.72;3.80;;;;;;;17.01;63.22;100165.25;5048742;28;20040;-75
2022/06/22 03:30:16;;;;;;;6.93;3.63;;;;;;;16.98;63.62;100169.78;5051769;28;20044;-74
2022/06/22 03:32:54;;;;;;;5.30;3.40;;;;;;;17.17;63.10;100166.19;5019376;28;20033;-75
2022/06/22 03:35:53;;;;;;;6.10;3.75;;;;;;;17.24;62.85;100165.78;5022627;28;20033;-74
2022/06/22 03:38:25;;;;;;;6.82;3.70;;;;;;;17.28;62.78;100161.16;5022638;28;20053;-74
2022/06/22 03:40:55;;;;;;;6.85;3.60;;;;;;;17.41;62.66;100156.91;5027007;28;20067;-75
2022/06/22 03:43:55;;;;;;;6.22;3.38;;;;;;;17.47;63.20;100150.41;5023599;28;20124;-75
2022/06/22 03:46:47;;;;;;;7.72;3.92;;;;;;;17.54;63.20;100150.94;5016595;28;20037;-75
2022/06/22 03:49:40;;;;;;;11.05;4.32;;;;;;;17.68;62.87;100159.03;5008469;28;20096;-75
2022/06/22 03:52:29;;;;;;;8.32;3.92;;;;;;;17.67;62.81;100167.91;5002177;28;20036;-75
2022/06/22 03:55:06;;;;;;;4.60;3.05;;;;;;;17.85;61.96;100168.75;5024219;28;20120;-75
2022/06/22 03:57:37;;;;;;;9.30;4.13;;;;;;;17.95;61.79;100168.19;5034704;28;20037;-75
2022/06/22 04:00:04;;;;;;;7.72;3.65;;;;;;;17.89;62.04;100171.16;5033375;28;20041;-71
2022/06/22 04:02:31;;;;;;;9.55;4.00;;;;;;;18.08;61.71;100178.13;5033546;28;20045;-75
2022/06/22 04:04:58;;;;;;;4.25;3.33;;;;;;;18.24;61.30;100173.66;5034483;28;20036;-75
2022/06/22 04:07:25;;;;;;;8.88;4.60;;;;;;;18.14;61.67;100178.63;5015936;28;20392;-75
2022/06/22 04:09:53;;;;;;;5.82;3.70;;;;;;;18.29;61.88;100176.91;5032977;28;20160;-75
2022/06/22 04:12:44;;;;;;;6.50;3.60;;;;;;;18.28;61.82;100169.88;5033796;28;20421;-74
2022/06/22 04:15:33;;;;;;;7.95;4.45;;;;;;;18.59;61.10;100168.09;5037899;28;20460;-73
2022/06/22 04:18:05;;;;;;;9.38;4.13;;;;;;;18.66;60.42;100169.47;5034198;28;20370;-72
2022/06/22 04:20:51;;;;;;;4.30;3.47;;;;;;;18.78;60.43;100171.44;5017505;28;20091;-72
2022/06/22 04:23:27;;;;;;;5.40;3.10;;;;;;;18.86;60.07;100185.16;5021236;28;20071;-73
2022/06/22 04:25:57;;;;;;;6.90;4.03;;;;;;;18.91;60.00;100190.19;5040370;28;20040;-73
2022/06/22 04:28:25;;;;;;;7.38;4.10;;;;;;;18.96;59.77;100193.47;5036844;28;20033;-73
2022/06/22 04:30:52;;;;;;;6.57;3.58;;;;;;;19.06;59.63;100191.09;5000163;28;20033;-73
2022/06/22 04:33:20;;;;;;;6.03;4.07;;;;;;;19.01;60.03;100187.84;5033893;28;20618;-72
2022/06/22 04:36:00;;;;;;;6.07;2.40;;;;;;;19.06;60.30;100186.63;5031417;28;20408;-74
2022/06/22 04:39:00;;;;;;;6.80;3.90;;;;;;;19.23;59.82;100198.94;5031970;28;20038;-72
2022/06/22 04:41:34;;;;;;;8.15;3.75;;;;;;;19.24;59.70;100192.66;5029561;28;20484;-71
2022/06/22 04:44:14;;;;;;;7.45;3.63;;;;;;;19.11;60.05;100197.00;5015365;28;20374;-69
2022/06/22 04:46:44;;;;;;;5.38;3.47;;;;;;;19.14;59.95;100199.47;5032584;28;20164;-70
2022/06/22 04:49:21;;;;;;;8.18;3.90;;;;;;;19.23;60.10;100201.63;5033503;28;20044;-70
2022/06/22 04:51:53;;;;;;;6.65;3.45;;;;;;;19.26;59.62;100209.38;5043167;28;20036;-71
2022/06/22 04:54:34;;;;;;;4.97;3.50;;;;;;;19.36;59.67;100209.72;5035965;28;20049;-71
2022/06/22 04:57:19;;;;;;;7.88;3.80;;;;;;;19.38;59.54;100205.97;5039094;28;20034;-70
2022/06/22 04:59:47;;;;;;;5.13;3.28;;;;;;;19.39;59.35;100209.53;5034749;28;20516;-70
2022/06/22 05:02:15;;;;;;;5.43;3.30;;;;;;;19.48;59.18;100200.13;5033790;28;20037;-69
2022/06/22 05:04:47;;;;;;;5.38;3.40;;;;;;;19.54;59.17;100205.03;5019139;28;20094;-69
2022/06/22 05:07:31;;;;;;;6.35;2.97;;;;;;;19.65;59.01;100202.63;5035630;28;20029;-67
2022/06/22 05:10:04;;;;;;;8.63;4.32;;;;;;;19.70;59.63;100203.19;5032315;28;20033;-69
2022/06/22 05:12:39;;;;;;;5.00;2.83;;;;;;;19.88;58.57;100206.53;5034628;28;20040;-68
2022/06/22 05:15:06;;;;;;;5.00;3.40;;;;;;;19.99;58.32;100211.16;5042615;28;20116;-70
2022/06/22 05:17:35;;;;;;;6.32;3.60;;;;;;;20.03;58.22;100207.34;5015906;28;20044;-68
2022/06/22 05:20:10;;;;;;;4.72;2.92;;;;;;;20.04;58.22;100209.94;5034400;28;20035;-69
2022/06/22 05:22:36;;;;;;;6.82;3.03;;;;;;;20.17;58.12;100210.00;5036354;28;20038;-68
2022/06/22 05:25:05;;;;;;;4.93;3.50;;;;;;;20.40;57.41;100205.84;5035242;28;20063;-68
2022/06/22 05:27:46;;;;;;;8.80;2.85;;;;;;;20.38;57.44;100213.94;5048542;28;20021;-68
2022/06/22 05:30:13;;;;;;;6.07;3.08;;;;;;;20.42;57.45;100214.59;5044758;28;20041;-69
2022/06/22 05:32:53;;;;;;;6.85;3.33;;;;;;;20.54;57.37;100218.31;5044606;28;20044;-68
2022/06/22 05:35:28;;;;;;;6.55;3.55;;;;;;;20.65;57.82;100221.97;5041897;28;20040;-68
2022/06/22 05:37:58;;;;;;;5.97;2.92;;;;;;;20.72;57.17;100227.78;5032320;28;20030;-68
2022/06/22 05:40:26;;;;;;;5.40;3.15;;;;;;;20.88;56.72;100217.78;5016033;28;20030;-68
2022/06/22 05:42:52;;;;;;;5.80;3.45;;;;;;;20.95;56.51;100225.41;5033116;28;20033;-68
2022/06/22 05:45:22;;;;;;;4.35;2.90;;;;;;;20.90;56.46;100221.22;5033413;28;20037;-68
2022/06/22 05:47:48;;;;;;;4.55;2.50;;;;;;;20.99;56.09;100224.25;5015744;28;20026;-68
2022/06/22 05:50:45;;;;;;;3.33;2.28;;;;;;;21.10;55.88;100221.66;5015434;28;20075;-68
2022/06/22 05:53:20;;;;;;;4.97;2.70;;;;;;;21.03;55.78;100221.25;5032901;28;20128;-68
2022/06/22 05:56:07;;;;;;;5.82;3.10;;;;;;;21.14;55.66;100208.03;5015635;28;20047;-68
2022/06/22 05:58:40;;;;;;;6.88;2.83;;;;;;;21.31;55.49;100211.34;5033412;28;20421;-68
2022/06/22 06:01:14;;;;;;;6.05;3.22;;;;;;;21.04;55.04;100206.09;5033447;28;20037;-69
2022/06/22 06:03:47;;;;;;;5.18;2.42;;;;;;;21.14;55.15;100205.34;5015922;28;20037;-68
2022/06/22 06:06:19;;;;;;;5.20;2.95;;;;;;;21.12;54.88;100198.41;5033272;28;20526;-69
2022/06/22 06:08:53;;;;;;;4.10;2.40;;;;;;;21.06;55.41;100205.00;5027640;28;20025;-67
2022/06/22 06:11:26;;;;;;;7.60;3.30;;;;;;;20.97;55.68;100218.97;5023255;28;20377;-68
2022/06/22 06:13:59;;;;;;;4.60;3.28;;;;;;;20.98;55.91;100219.84;5035091;28;20079;-69
2022/06/22 06:16:29;;;;;;;5.30;3.15;;;;;;;21.23;55.34;100222.56;5035721;28;20025;-67
2022/06/22 06:19:05;;;;;;;6.82;3.00;;;;;;;21.20;55.44;100227.25;5038174;28;20044;-69
2022/06/22 06:21:37;;;;;;;6.22;2.55;;;;;;;21.35;55.07;100229.78;5032959;28;20037;-68
2022/06/22 06:24:22;;;;;;;7.07;2.97;;;;;;;21.44;54.66;100230.09;5033657;28;20144;-68
2022/06/22 06:30:17;;;;;;;5.20;2.80;;;;;;;20.94;56.44;100221.84;5031053;28;20092;-67
2022/06/22 06:32:59;;;;;;;6.22;3.25;;;;;;;20.94;55.84;100235.19;5035477;28;20030;-68
2022/06/22 06:35:36;;;;;;;4.25;2.95;;;;;;;21.21;55.41;100235.16;5034916;28;20026;-67
2022/06/22 06:38:35;;;;;;;5.22;2.78;;;;;;;21.30;55.52;100239.00;5016167;28;20025;-67
2022/06/22 06:41:16;;;;;;;5.45;2.85;;;;;;;21.59;54.44;100229.88;5034853;28;20462;-67
2022/06/22 06:43:49;;;;;;;5.00;2.83;;;;;;;21.79;54.01;100235.66;5035736;28;20034;-68
2022/06/22 06:46:25;;;;;;;;;;;;;;;21.76;54.21;100235.88;5036020;28;20029;-67
2022/06/22 06:49:07;;;;;;;5.55;3.20;;;;;;;21.85;54.44;100241.41;5035215;28;19909;-69
2022/06/22 06:51:35;;;;;;;4.50;3.03;;;;;;;22.26;53.32;100247.47;5050505;28;20473;-68
2022/06/22 06:54:10;;;;;;;3.70;2.40;;;;;;;22.82;52.18;100237.97;5035281;28;20465;-68
2022/06/22 06:57:04;;;;;;;4.10;2.58;;;;;;;23.23;51.14;100239.34;5002255;28;20120;-67
2022/06/22 06:59:31;;;;;;;6.07;2.83;;;;;;;23.53;50.82;100233.44;5012139;28;20071;-67
2022/06/22 07:02:05;;;;;;;5.15;2.47;;;;;;;23.77;50.19;100232.50;5017201;28;20060;-68
2022/06/22 07:04:34;;;;;;;4.50;2.83;;;;;;;23.88;49.13;100231.69;5034353;28;20037;-68
2022/06/22 07:07:47;;;;;;;5.97;2.40;;;;;;;23.73;48.40;100244.47;5034829;28;20136;-68
2022/06/22 07:10:20;;;;;;;5.45;2.40;;;;;;;23.96;49.25;100235.44;4996823;28;20116;-70
2022/06/22 07:12:57;;;;;;;3.45;2.53;;;;;;;24.17;47.34;100226.66;5034771;28;20037;-67
2022/06/22 07:15:28;;;;;;;6.63;2.40;;;;;;;24.27;48.17;100231.16;5033882;28;20041;-68
2022/06/22 07:18:00;;;;;;;4.78;1.98;;;;;;;24.36;47.68;100242.13;5034991;28;20059;-68
2022/06/22 07:20:42;;;;;;;4.30;1.88;;;;;;;23.75;45.56;100231.78;5035071;28;20025;-69
2022/06/22 07:23:40;;;;;;;5.53;2.00;;;;;;;22.98;46.42;100226.97;5012197;28;20040;-66
2022/06/22 07:26:19;;;;;;;6.18;1.90;;;;;;;23.62;46.74;100231.88;5033394;28;20098;-69
2022/06/22 07:28:52;;;;;;;4.72;1.83;;;;;;;23.47;46.12;100233.06;5029870;28;20382;-68
2022/06/22 07:31:33;;;;;;;4.50;1.77;;;;;;;23.38;46.00;100228.41;5032302;28;20393;-66
2022/06/22 07:34:08;;;;;;;3.78;1.58;;;;;;;24.02;45.24;100234.13;5034058;28;20100;-68
2022/06/22 07:36:39;;;;;;;3.78;1.88;;;;;;;23.71;44.77;100241.91;5034715;28;20417;-67
2022/06/22 07:39:04;;;;;;;6.95;2.00;;;;;;;23.67;46.08;100232.41;5034738;28;20034;-68
2022/06/22 07:41:31;;;;;;;3.30;1.75;;;;;;;24.10;44.98;100231.69;5034904;28;20072;-69
2022/06/22 07:44:04;;;;;;;5.45;2.03;;;;;;;24.36;43.91;100226.00;5034667;28;20025;-69
2022/06/22 07:46:46;;;;;;;4.35;1.90;;;;;;;24.25;43.26;100243.84;5017011;28;20049;-68
2022/06/22 07:49:18;;;;;;;5.88;1.80;;;;;;;24.16;44.16;100239.22;5034478;28;20026;-68
2022/06/22 07:51:51;;;;;;;3.30;1.88;;;;;;;24.18;42.88;100242.66;5033451;28;20040;-68
2022/06/22 07:54:27;;;;;;;5.93;1.75;;;;;;;24.61;43.51;100230.25;5030193;28;20452;-67
2022/06/22 07:57:04;;;;;;;3.10;1.52;;;;;;;24.63;43.34;100239.91;5034474;28;20026;-68
2022/06/22 07:59:37;;;;;;;4.53;1.83;;;;;;;24.17;43.76;100240.91;5032478;28;20120;-68
2022/06/22 08:02:10;;;;;;;5.22;2.17;;;;;;;24.30;44.36;100241.66;5015956;28;20040;-68
2022/06/22 08:05:01;;;;;;;5.50;2.47;;;;;;;24.57;43.56;100240.38;5034348;28;20037;-67
2022/06/22 08:07:37;;;;;;;7.75;2.08;;;;;;;24.81;43.10;100248.25;5019191;28;20044;-68
2022/06/22 08:10:25;;;;;;;5.13;2.28;;;;;;;24.64;42.26;100249.66;5032320;28;20435;-68
2022/06/22 08:13:05;;;;;;;4.80;1.95;;;;;;;24.25;43.14;100241.16;5030451;28;20088;-67
2022/06/22 08:15:38;;;;;;;4.25;1.83;;;;;;;24.42;43.34;100242.53;5032079;28;20128;-68
2022/06/22 08:18:04;;;;;;;3.92;1.75;;;;;;;24.59;43.66;100233.06;5033279;28;20053;-68
2022/06/22 08:20:33;;;;;;;4.22;1.98;;;;;;;24.89;42.94;100235.03;5033240;28;20107;-68
2022/06/22 08:23:04;;;;;;;7.80;2.55;;;;;;;24.66;41.96;100250.41;5034065;28;20037;-68
2022/06/22 08:25:31;;;;;;;3.83;1.70;;;;;;;24.72;42.14;100247.19;5030819;28;20033;-67
2022/06/22 08:27:57;;;;;;;6.28;2.20;;;;;;;24.54;42.76;100251.41;5032110;28;20549;-68
2022/06/22 08:30:23;;;;;;;6.57;2.20;;;;;;;24.77;43.01;100255.72;5032813;28;20095;-68
2022/06/22 08:32:59;;;;;;;5.45;2.15;;;;;;;24.67;43.36;100246.72;5006429;28;20037;-68
2022/06/22 08:35:29;;;;;;;3.70;1.80;;;;;;;25.34;42.65;100247.44;5026958;28;20711;-68
2022/06/22 08:38:03;;;;;;;6.68;2.08;;;;;;;24.90;42.29;100257.41;5016035;28;20083;-68
2022/06/22 08:40:35;;;;;;;2.92;1.65;;;;;;;24.56;42.18;100270.91;5015297;28;20095;-68
2022/06/22 08:43:28;;;;;;;5.43;2.35;;;;;;;24.24;42.94;100278.88;5030894;28;20044;-67
2022/06/22 08:46:14;;;;;;;6.53;1.88;;;;;;;24.01;43.90;100257.41;5002206;28;20052;-65
2022/06/22 08:49:02;;;;;;;4.45;1.60;;;;;;;25.08;42.26;100272.81;5027867;28;20068;-69
2022/06/22 08:52:05;;;;;;;4.88;1.80;;;;;;;25.26;41.51;100253.47;5033424;28;20036;-68
2022/06/22 08:54:59;;;;;;;3.72;1.98;;;;;;;25.06;42.75;100255.97;5016560;28;20042;-68
2022/06/22 08:57:40;;;;;;;3.13;1.77;;;;;;;24.87;43.17;100258.50;5031495;28;20048;-66
2022/06/22 09:00:20;;;;;;;4.55;2.28;;;;;;;24.83;43.40;100268.66;5033093;28;20030;-64
2022/06/22 09:03:07;;;;;;;4.53;1.90;;;;;;;24.96;42.39;100265.78;5019412;28;21137;-66
2022/06/22 09:05:38;;;;;;;4.40;2.00;;;;;;;24.24;44.12;100263.59;5024742;28;20397;-66
2022/06/22 09:08:21;;;;;;;3.80;1.75;;;;;;;24.42;43.69;100284.63;5033304;28;20079;-66
2022/06/22 09:11:05;;;;;;;3.08;1.45;;;;;;;24.71;41.96;100266.13;5033413;28;20143;-66
2022/06/22 09:13:46;;;;;;;3.05;1.27;;;;;;;25.02;40.90;100272.50;5033444;28;20061;-66
2022/06/22 09:16:11;;;;;;;5.13;1.48;;;;;;;25.46;40.80;100260.69;5016268;28;20037;-63
2022/06/22 09:18:59;;;;;;;4.50;1.73;;;;;;;25.44;39.65;100268.03;5001404;28;20040;-64
2022/06/22 09:21:43;;;;;;;4.43;1.65;;;;;;;25.72;40.24;100269.19;5020130;28;20436;-65
2022/06/22 09:24:21;;;;;;;7.72;2.20;;;;;;;25.77;41.27;100268.78;5013817;28;20045;-66
2022/06/22 09:26:52;;;;;;;3.53;1.60;;;;;;;25.40;41.97;100260.34;4995397;28;20108;-65
2022/06/22 09:29:20;;;;;;;4.05;1.95;;;;;;;25.31;42.49;100265.53;5030391;28;20034;-68
2022/06/22 09:32:05;;;;;;;7.30;1.92;;;;;;;25.76;41.40;100272.47;5015517;28;20041;-66
2022/06/22 09:35:09;;;;;;;4.55;1.63;;;;;;;26.41;39.92;100270.34;5033166;28;20033;-66
2022/06/22 09:37:52;;;;;;;2.97;1.80;;;;;;;26.72;39.26;100260.38;4933821;29;20031;-66
2022/06/22 09:40:24;;;;;;;3.33;1.88;;;;;;;26.59;40.05;100266.03;5007122;28;20382;-66
2022/06/22 09:43:18;;;;;;;2.78;1.35;;;;;;;26.03;38.48;100274.63;5033307;28;20041;-66
2022/06/22 09:46:07;;;;;;;3.90;1.60;;;;;;;25.85;38.84;100276.22;5033167;28;20029;-66
2022/06/22 09:49:15;;;;;;;2.58;1.30;;;;;;;26.16;38.55;100261.78;5025979;28;20037;-66
2022/06/22 09:52:05;;;;;;;3.67;1.30;;;;;;;26.63;37.91;100261.22;5015116;28;20432;-66
2022/06/22 09:57:36;;;;;;;5.35;2.17;;;;;;;26.59;38.07;100263.34;5036724;28;20064;-68
2022/06/22 10:00:05;;;;;;;3.08;1.70;;;;;;;26.36;39.06;100270.75;5018874;28;20021;-66
2022/06/22 10:03:01;;;;;;;3.67;1.70;;;;;;;26.30;38.83;100255.16;5036182;28;20036;-65
2022/06/22 10:06:03;;;;;;;4.65;1.55;;;;;;;26.22;38.88;100272.00;5035215;28;20033;-66
2022/06/22 10:08:55;;;;;;;2.67;1.33;;;;;;;26.59;39.37;100271.44;5034692;28;20096;-65
2022/06/22 10:11:46;;;;;;;2.95;1.55;;;;;;;26.65;37.92;100260.09;5036031;28;20043;-65
2022/06/22 10:14:55;;;;;;;3.35;1.23;;;;;;;27.25;36.90;100274.34;5018606;28;20037;-66
2022/06/22 10:17:46;;;;;;;2.60;1.50;;;;;;;27.45;37.49;100268.94;5018961;28;20172;-66
2022/06/22 10:20:46;;;;;;;4.97;1.58;;;;;;;26.83;37.54;100279.13;5020628;28;20095;-65
2022/06/22 10:23:29;;;;;;;4.72;1.70;;;;;;;26.25;38.75;100279.81;5010371;28;20044;-66
2022/06/22 10:26:19;;;;;;;5.78;2.10;;;;;;;25.75;39.06;100276.16;5040859;28;20041;-65
2022/06/22 10:29:22;;;;;;;5.43;1.70;;;;;;;25.47;40.15;100266.91;5045503;28;20033;-65
2022/06/22 10:32:35;;;;;;;3.72;1.75;;;;;;;25.17;42.05;100287.34;5039760;28;20021;-65
2022/06/22 10:35:15;;;;;;;3.42;1.60;;;;;;;25.12;40.36;100283.34;5032985;28;20033;-69
2022/06/22 10:37:58;;;;;;;3.83;1.30;;;;;;;25.61;41.00;100276.47;5051697;28;20026;-63
2022/06/22 10:46:59;;;;;;;3.65;1.92;;;;;;;25.72;40.59;100273.72;5042485;28;20071;-62
2022/06/22 10:49:42;;;;;;;4.40;1.70;;;;;;;26.72;39.63;100274.72;5046071;28;20025;-63
2022/06/22 10:52:25;;;;;;;3.20;1.70;;;;;;;27.24;38.27;100271.78;5025995;28;20067;-63
2022/06/22 10:54:54;;;;;;;2.42;1.50;;;;;;;27.13;37.70;100274.63;5039405;28;20477;-63
2022/06/22 10:57:46;;;;;;;2.00;1.20;;;;;;;26.70;36.07;100257.84;5044296;28;20060;-63
2022/06/22 11:00:14;;;;;;;3.28;1.30;;;;;;;27.06;37.82;100268.09;5035100;28;20107;-65
2022/06/22 11:02:58;;;;;;;1.95;1.38;;;;;;;26.93;37.33;100271.03;5035369;28;20148;-64
2022/06/22 11:05:39;;;;;;;3.55;1.52;;;;;;;27.06;36.61;100268.09;5036451;28;20091;-64
2022/06/22 11:08:23;;;;;;;5.22;1.73;;;;;;;27.60;36.61;100278.25;5026843;28;20532;-65
2022/06/22 11:11:12;;;;;;;3.50;1.52;;;;;;;27.63;36.76;100266.34;5037972;28;20042;-63
2022/06/22 11:13:52;;;;;;;3.78;1.67;;;;;;;27.47;36.53;100266.94;5039975;28;20061;-64
2022/06/22 11:16:29;;;;;;;7.47;2.15;;;;;;;26.77;38.43;100268.88;5025925;28;20033;-62
2022/06/22 11:19:10;;;;;;;4.38;1.70;;;;;;;26.38;38.68;100270.66;5031902;28;20029;-64
2022/06/22 11:21:58;;;;;;;4.15;1.63;;;;;;;26.30;38.76;100268.63;5032720;28;20065;-63
2022/06/22 11:24:47;;;;;;;2.50;1.20;;;;;;;26.84;38.57;100269.19;5046845;28;20041;-64
2022/06/22 11:30:51;;;;;;;2.47;1.45;;;;;;;27.26;37.08;100267.97;5035516;28;20381;-63
2022/06/22 11:33:35;;;;;;;3.95;1.73;;;;;;;26.62;38.57;100278.41;5048560;28;20116;-63
2022/06/22 11:36:22;;;;;;;2.83;1.70;;;;;;;26.20;39.86;100268.59;5034494;28;20037;-63
2022/06/22 11:39:06;;;;;;;3.65;1.60;;;;;;;26.02;40.07;100281.00;5035133;28;20038;-63
2022/06/22 11:41:45;;;;;;;3.15;1.80;;;;;;;25.65;40.96;100278.78;5033992;28;20033;-63
2022/06/22 11:44:22;;;;;;;3.75;1.50;;;;;;;25.50;41.48;100277.41;5034602;28;20041;-63
2022/06/22 11:46:52;;;;;;;2.75;1.33;;;;;;;25.59;41.48;100271.25;5034620;28;20039;-63
2022/06/22 11:49:34;;;;;;;4.65;1.90;;;;;;;25.35;41.49;100276.03;5034354;28;20120;-63
2022/06/22 11:52:28;;;;;;;4.00;1.70;;;;;;;25.75;40.32;100271.63;5034764;28;20026;-64
2022/06/22 11:55:14;;;;;;;1.75;1.45;;;;;;;26.18;39.92;100261.66;5034691;28;20091;-64
2022/06/22 11:58:08;;;;;;;3.08;1.60;;;;;;;26.69;39.56;100250.75;5034936;28;20041;-64
2022/06/22 12:00:42;;;;;;;2.38;1.42;;;;;;;27.11;38.55;100265.84;5034624;28;20556;-64
2022/06/22 12:03:28;;;;;;;2.63;1.60;;;;;;;27.05;37.46;100261.84;5034454;28;20041;-64
2022/06/22 12:06:31;;;;;;;4.78;1.80;;;;;;;27.28;36.20;100257.00;5034409;28;20033;-64
2022/06/22 12:09:15;;;;;;;3.63;1.50;;;;;;;27.92;36.99;100253.63;5034379;28;20025;-63
2022/06/22 12:12:02;;;;;;;3.38;1.48;;;;;;;28.12;35.72;100250.84;5034172;28;20107;-64
2022/06/22 12:17:25;;;;;;;4.03;1.73;;;;;;;27.42;36.72;100269.22;5034099;28;20042;-64
2022/06/22 12:20:14;;;;;;;2.28;1.40;;;;;;;27.21;37.29;100262.16;5034258;28;20391;-64
2022/06/22 12:22:42;;;;;;;3.92;1.80;;;;;;;27.33;37.54;100256.56;5033738;28;20506;-64
2022/06/22 12:25:31;;;;;;;2.78;1.70;;;;;;;27.42;37.50;100253.03;5033991;28;20034;-63
2022/06/22 12:28:31;;;;;;;3.70;1.60;;;;;;;27.13;37.86;100258.44;5049374;28;20029;-64
2022/06/22 12:31:08;;;;;;;2.95;1.60;;;;;;;26.97;37.94;100253.59;5033826;28;20112;-64
2022/06/22 12:33:43;;;;;;;3.20;1.60;;;;;;;26.80;38.62;100252.44;5032544;28;20549;-65
2022/06/22 12:36:33;;;;;;;4.55;1.85;;;;;;;26.83;37.59;100252.16;5033973;28;20040;-64
2022/06/22 12:39:25;;;;;;;2.35;1.23;;;;;;;27.07;37.65;100245.50;5015729;28;20033;-64